»·PEaware :: WAT352 KRNO-KLAS

WAT352 :: KRNO-KLAS

FLIGHT INFORMATION

Flight Status: Arrived
Operator:
Walker Air Transport
More flights by this operator :: More flights under this callsign
Pilot: Matthew M. (27032)
Aircraft: AIRBUS A321
(A321)
More flights by this aircraft type
Origin: KRNO Reno/Tahoe Intl
United States
Destination: KLAS McCarran Intl
United States
More flights between these airports :: More routes between these airports
Route: +ZEFFR6 PESKE LIDAT J92 BTY SUNST4
File this flight plan on PilotEdge
Remarks: RMK / SIMBRIEF
Altitude:
(Current/Filed)
31,000ft
Speed:
(Current/Filed)
452kts
Departed: 12-Nov-20 10:01 AM
Arrived: 12-Nov-20 10:56 AM
Distance/Time
Traveled:
300nm/0:55
Distance/Time
To Go:
Arrived

Flight Plot

Page will automatically refresh every two minutes.

Flight plan parsing failed; only flown route is shown


Map Options




Map Legend


Flown Route
Filed Route
Departure Airport
Arrival Airport
Navaid (VOR, NDB)
Fix

Horizontal Profiles

Position Reports

Time Latitude Longitude Heading Altitude Ground
Speed
12-Nov-20 09:39 39.504385 -119.773277 0 4424ft 0kts
12-Nov-20 09:40 39.504385 -119.773277 0 4424ft 0kts
12-Nov-20 09:41 39.504385 -119.773277 0 4424ft 0kts
12-Nov-20 09:42 39.504385 -119.773277 0 4424ft 0kts
12-Nov-20 09:43 39.504385 -119.773277 0 4424ft 0kts
12-Nov-20 09:44 39.504385 -119.773277 0 4424ft 0kts
12-Nov-20 09:45 39.504385 -119.773277 0 4424ft 0kts
12-Nov-20 09:46 39.504385 -119.773277 0 4424ft 0kts
12-Nov-20 09:47 39.504385 -119.773277 0 4424ft 0kts
12-Nov-20 09:48 39.504385 -119.773277 0 4424ft 0kts
12-Nov-20 09:49 39.504385 -119.773277 0 4424ft 0kts
12-Nov-20 09:50 39.504313 -119.773277 0 4424ft 2kts
12-Nov-20 09:51 39.503782 -119.773519 63 4424ft 2kts
12-Nov-20 09:52 39.503739 -119.773810 90 4424ft 0kts
12-Nov-20 09:53 39.503739 -119.773810 90 4424ft 0kts
12-Nov-20 09:54 39.503732 -119.772563 90 4424ft 10kts
12-Nov-20 09:55 39.507845 -119.771533 358 4424ft 21kts
12-Nov-20 09:56 39.513331 -119.771488 9 4424ft 13kts
12-Nov-20 09:57 39.513742 -119.770520 89 4424ft 0kts
12-Nov-20 09:58 39.513742 -119.770520 89 4424ft 0kts
12-Nov-20 09:59 39.513742 -119.770520 89 4424ft 0kts
12-Nov-20 10:00 39.511825 -119.769244 179 4424ft 45kts
12-Nov-20 10:01 39.468428 -119.769166 180 5968ft 197kts
12-Nov-20 10:02 39.410358 -119.769662 179 7414ft 234kts
12-Nov-20 10:04 39.338412 -119.769519 177 9154ft 277kts
12-Nov-20 10:05 39.277210 -119.708792 132 10923ft 313kts
12-Nov-20 10:06 39.214075 -119.617063 132 11981ft 372kts
12-Nov-20 10:07 39.140122 -119.513563 136 13774ft 402kts
12-Nov-20 10:08 39.058304 -119.412045 136 15900ft 416kts
12-Nov-20 10:09 38.973999 -119.307451 137 17920ft 427kts
12-Nov-20 10:10 38.887259 -119.200134 137 19723ft 439kts
12-Nov-20 10:11 38.797741 -119.090373 137 21387ft 450kts
12-Nov-20 10:12 38.709935 -118.974198 134 22849ft 461kts
12-Nov-20 10:13 38.620801 -118.853112 134 24197ft 471kts
12-Nov-20 10:14 38.529917 -118.730139 134 25562ft 478kts
12-Nov-20 10:15 38.439168 -118.607758 135 27158ft 475kts
12-Nov-20 10:16 38.348439 -118.485890 135 28528ft 475kts
12-Nov-20 10:17 38.257495 -118.364236 136 29816ft 474kts
12-Nov-20 10:18 38.166864 -118.242999 137 30942ft 473kts
12-Nov-20 10:19 38.076111 -118.122464 137 31192ft 472kts
12-Nov-20 10:20 37.985312 -118.002441 137 31193ft 473kts
12-Nov-20 10:21 37.894396 -117.882691 137 31193ft 473kts
12-Nov-20 10:21 37.818186 -117.783146 138 31188ft 473kts
12-Nov-20 10:22 37.726851 -117.663759 138 31178ft 473kts
12-Nov-20 10:24 37.620428 -117.525021 138 31175ft 473kts
12-Nov-20 10:24 37.544066 -117.425794 138 31175ft 474kts
12-Nov-20 10:25 37.452232 -117.307802 142 31174ft 471kts
12-Nov-20 10:26 37.348907 -117.208932 152 31175ft 465kts
12-Nov-20 10:27 37.241876 -117.118558 152 31175ft 465kts
12-Nov-20 10:28 37.135025 -117.028350 152 31169ft 465kts
12-Nov-20 10:29 37.027985 -116.938235 153 31158ft 465kts
12-Nov-20 10:30 36.920661 -116.848148 153 31150ft 465kts
12-Nov-20 10:31 36.814619 -116.755931 147 30395ft 466kts
12-Nov-20 10:32 36.724045 -116.640139 136 28015ft 472kts
12-Nov-20 10:33 36.637534 -116.516327 135 25032ft 476kts
12-Nov-20 10:34 36.550495 -116.392596 134 22088ft 471kts
12-Nov-20 10:35 36.468844 -116.276509 135 21182ft 419kts
12-Nov-20 10:36 36.394553 -116.172009 135 19791ft 392kts
12-Nov-20 10:37 36.324378 -116.073514 135 18361ft 371kts
12-Nov-20 10:38 36.257943 -115.980474 135 17033ft 350kts
12-Nov-20 10:39 36.197912 -115.890334 120 15859ft 332kts
12-Nov-20 10:40 36.162808 -115.782999 114 15927ft 338kts
12-Nov-20 10:41 36.128395 -115.675640 114 14526ft 330kts
12-Nov-20 10:42 36.094986 -115.572270 113 13166ft 317kts
12-Nov-20 10:43 36.062891 -115.473193 113 11838ft 306kts
12-Nov-20 10:44 36.032815 -115.378080 105 10959ft 278kts
12-Nov-20 10:45 36.024424 -115.283022 96 10015ft 275kts
12-Nov-20 10:46 36.017873 -115.191122 96 8849ft 259kts
12-Nov-20 10:47 36.011982 -115.104023 95 8095ft 242kts
12-Nov-20 10:48 36.007029 -115.024131 94 7041ft 230kts
12-Nov-20 10:49 36.002722 -114.945870 85 5848ft 226kts
12-Nov-20 10:50 36.049659 -114.923899 318 5002ft 225kts
12-Nov-20 10:51 36.074252 -114.989838 269 4253ft 217kts
12-Nov-20 10:52 36.073852 -115.054560 269 3194ft 155kts
12-Nov-20 10:53 36.073709 -115.108428 270 2383ft 155kts
12-Nov-20 10:54 36.073646 -115.150834 270 2128ft 48kts
12-Nov-20 10:55 36.078055 -115.156684 89 2139ft 22kts
12-Nov-20 10:56 36.078093 -115.148214 18 2108ft 10kts
12-Nov-20 10:57 36.081008 -115.147683 65 2102ft 0kts
12-Nov-20 10:58 36.081008 -115.147683 65 2102ft 0kts
12-Nov-20 10:59 36.081008 -115.147683 65 2102ft 0kts
12-Nov-20 11:00 36.081008 -115.147683 65 2102ft 0kts
12-Nov-20 11:01 36.081008 -115.147683 65 2102ft 0kts

Navigation Log

Ident Type
Flight plan parsing failed, navigation log unavailable